KLSV/LSV METAR and TAF weather

Enter ICAO airport designator
Station Type Date Time Source
KLSV METAR 2021/07/26 15:58 UTC NOAA

KLSV 261558Z 12004KT 10SM SCT043 27/25 A3000 RMK SLP139 $


Station Type Date Time Source
KLSV Decoded METAR 2021/07/26 15:58 UTC NOAA

Nellis Air Force Base, NV, United States (KLSV) 36-14N 115-02W
Jul 26, 2021 - 11:58 AM EDT / 2021.07.26 1558 UTC
Wind: from the ESE (120 degrees) at 5 MPH (4 KT):0
Visibility: 10 mile(s):0
Sky conditions: partly cloudy
Temperature: 80 F (27 C)
Dew Point: 77 F (25 C)
Relative Humidity: 88%
Pressure (altimeter): 30 in. Hg (1015 hPa)
ob: KLSV 261558Z 12004KT 10SM SCT043 27/25 A3000 RMK SLP139
cycle: 16

Station Type Date Time Source
KLSV TAF 2021/07/26 15:51 UTC NOAA

TAF KLSV 261500Z 2615/2721 05012KT 9999 BKN100 QNH2994INS
BECMG 2617/2618 17015G25KT 9999 VCTS SCT080CB BKN100 QNH2996INS
TEMPO 2620/2703 VRB25G35KT -TSRA BKN080CB
BECMG 2704/2705 VRB06KT 9999 NSW BKN100 QNH2994INS
BECMG 2708/2709 32009KT 9999 SCT120 QNH2999INS
BECMG 2714/2715 18012KT 9999 SCT120 QNH2997INS TX38/2623Z TN27/2713Z

Example: see airport list